Time;durP1;ratioP1;P1;durP2;ratioP2;P2;SDS_P1;SDS_P2;PMS_P1;PMS_P2;Temp;Humidity;BMP_temperature;BMP_pressure;BME280_temperature;BME280_humidity;BME280_pressure;Samples;Min_cycle;Max_cycle;Signal;HPM_P1;HPM_P2
2022/08/24 00:00:09;;;;;;;;;;;26.80;58.80;;;;;;849510;23;821;-87
2022/08/24 00:00:33;;;;;;;;;;;26.80;58.80;;;;;;850119;23;1176;-86
2022/08/24 00:00:54;;;;;;;;;;;26.80;58.90;;;;;;848983;23;1583;-87
2022/08/24 00:01:15;;;;;;;;;;;26.80;58.80;;;;;;846289;23;1231;-87
2022/08/24 00:01:35;;;;;;;;;;;26.80;58.80;;;;;;848789;23;1942;-88
2022/08/24 00:01:56;;;;;;;;;;;26.70;58.80;;;;;;848968;23;1223;-87
2022/08/24 00:02:17;;;;;;;;;;;26.80;58.80;;;;;;848971;23;818;-88
2022/08/24 00:02:37;;;;;;;;;;;26.80;58.90;;;;;;849294;23;857;-89
2022/08/24 00:02:58;;;;;;;;;;;26.80;58.70;;;;;;852908;23;1481;-87
2022/08/24 00:03:18;;;;;;;;;;;26.80;58.80;;;;;;852976;23;765;-88
2022/08/24 00:03:40;;;;;;;;;;;26.80;58.80;;;;;;852651;23;1220;-87
2022/08/24 00:04:01;;;;;;;;;;;26.80;58.80;;;;;;848896;23;770;-88
2022/08/24 00:04:22;;;;;;;;;;;26.80;58.80;;;;;;848925;23;794;-87
2022/08/24 00:04:42;;;;;;;;;;;26.80;58.70;;;;;;845513;23;1449;-87
2022/08/24 00:05:03;;;;;;;;;;;26.80;58.80;;;;;;848915;23;806;-87
2022/08/24 00:05:24;;;;;;;;;;;26.80;58.70;;;;;;848927;23;1070;-88
2022/08/24 00:05:45;;;;;;;;;;;26.80;58.80;;;;;;848823;23;1119;-88
2022/08/24 00:06:06;;;;;;;;;;;26.80;58.80;;;;;;849193;23;777;-88
2022/08/24 00:06:27;;;;;;;;;;;26.80;58.60;;;;;;849524;23;1120;-87
2022/08/24 00:06:48;;;;;;;;;;;26.80;58.80;;;;;;852823;23;1069;-88
2022/08/24 00:07:09;;;;;;;;;;;26.80;58.80;;;;;;852058;23;1075;-88
2022/08/24 00:07:30;;;;;;;;;;;26.80;58.70;;;;;;848810;23;794;-87
2022/08/24 00:07:51;;;;;;;;;;;26.80;58.90;;;;;;848873;23;789;-88
2022/08/24 00:08:12;;;;;;;;;;;26.80;58.80;;;;;;849182;23;739;-87
2022/08/24 00:08:33;;;;;;;;;;;26.80;58.80;;;;;;849721;23;805;-88
2022/08/24 00:08:54;;;;;;;;;;;26.80;58.80;;;;;;853012;23;778;-88
2022/08/24 00:09:15;;;;;;;;;;;26.80;58.50;;;;;;853349;23;747;-88
2022/08/24 00:09:36;;;;;;;;;;;26.80;58.50;;;;;;852844;23;1128;-87
2022/08/24 00:09:57;;;;;;;;;;;26.80;58.60;;;;;;853190;23;1264;-88
2022/08/24 00:10:19;;;;;;;;;;;26.80;58.80;;;;;;852989;23;821;-87
2022/08/24 00:10:40;;;;;;;;;;;26.80;58.80;;;;;;853160;23;924;-88
2022/08/24 00:11:00;;;;;;;;;;;26.80;58.80;;;;;;853074;23;794;-88
2022/08/24 00:11:21;;;;;;;;;;;26.80;58.80;;;;;;852883;23;849;-89
2022/08/24 00:11:42;;;;;;;;;;;26.80;58.70;;;;;;853760;23;1148;-88
2022/08/24 00:12:04;;;;;;;;;;;26.80;58.60;;;;;;856969;23;1419;-88
2022/08/24 00:12:24;;;;;;;;;;;26.80;58.60;;;;;;853046;23;1190;-87
2022/08/24 00:12:45;;;;;;;;;;;26.80;58.70;;;;;;852939;23;1310;-87
2022/08/24 00:13:05;;;;;;;;;;;26.80;58.80;;;;;;852938;23;865;-87
2022/08/24 00:13:27;;;;;;;;;;;26.80;58.80;;;;;;848219;23;1296;-89
2022/08/24 00:13:50;;;;;;;;;;;26.80;58.70;;;;;;848753;23;1124;-87
2022/08/24 00:14:11;;;;;;;;;;;26.80;58.80;;;;;;848804;23;1412;-87
2022/08/24 00:14:31;;;;;;;;;;;26.80;58.80;;;;;;849845;23;1336;-87
2022/08/24 00:14:52;;;;;;;;;;;26.80;58.80;;;;;;852999;23;810;-88
2022/08/24 00:15:14;;;;;;;;;;;26.80;58.90;;;;;;852750;23;1168;-88
2022/08/24 00:15:35;;;;;;;;;;;26.80;58.70;;;;;;852818;23;1231;-87
2022/08/24 00:15:56;;;;;;;;;;;26.80;58.70;;;;;;849440;23;1262;-87
2022/08/24 00:16:17;;;;;;;;;;;26.80;58.80;;;;;;852119;23;789;-86
2022/08/24 00:16:37;;;;;;;;;;;26.80;58.80;;;;;;848838;23;809;-86
2022/08/24 00:16:58;;;;;;;;;;;26.80;58.60;;;;;;848814;23;818;-88
2022/08/24 00:17:19;;;;;;;;;;;26.80;58.50;;;;;;849421;23;853;-87
2022/08/24 00:17:40;;;;;;;;;;;26.80;58.60;;;;;;852875;23;817;-87
2022/08/24 00:18:01;;;;;;;;;;;26.80;58.80;;;;;;851896;23;1222;-87
2022/08/24 00:18:21;;;;;;;;;;;26.80;58.70;;;;;;852991;23;793;-87
2022/08/24 00:18:43;;;;;;;;;;;26.80;58.60;;;;;;853104;23;782;-87
2022/08/24 00:19:04;;;;;;;;;;;26.80;58.60;;;;;;852700;23;1411;-88
2022/08/24 00:19:25;;;;;;;;;;;26.80;58.60;;;;;;852959;23;793;-87
2022/08/24 00:19:45;;;;;;;;;;;26.80;58.60;;;;;;852978;23;761;-86
2022/08/24 00:20:07;;;;;;;;;;;26.80;58.70;;;;;;852905;23;972;-86
2022/08/24 00:20:28;;;;;;;;;;;26.80;58.70;;;;;;852952;23;1159;-88
2022/08/24 00:20:49;;;;;;;;;;;26.80;58.70;;;;;;852822;23;770;-86
2022/08/24 00:21:09;;;;;;;;;;;26.80;58.70;;;;;;852911;23;865;-87
2022/08/24 00:21:30;;;;;;;;;;;26.80;58.70;;;;;;852828;23;1884;-87
2022/08/24 00:21:51;;;;;;;;;;;26.80;58.70;;;;;;853092;23;730;-87
2022/08/24 00:22:12;;;;;;;;;;;26.80;58.60;;;;;;852751;23;1274;-88
2022/08/24 00:22:33;;;;;;;;;;;26.80;58.70;;;;;;853025;23;829;-87
2022/08/24 00:22:54;;;;;;;;;;;;;;;;;;852730;23;1344;-86
2022/08/24 00:23:15;;;;;;;;;;;26.80;58.60;;;;;;853006;23;881;-86
2022/08/24 00:23:35;;;;;;;;;;;26.80;58.60;;;;;;852822;23;1218;-88
2022/08/24 00:23:56;;;;;;;;;;;26.70;58.40;;;;;;852930;23;881;-87
2022/08/24 00:24:17;;;;;;;;;;;26.80;58.50;;;;;;852766;23;1344;-87
2022/08/24 00:24:38;;;;;;;;;;;26.80;58.40;;;;;;852997;23;833;-86
2022/08/24 00:24:59;;;;;;;;;;;26.80;58.40;;;;;;852800;23;1198;-87
2022/08/24 00:25:19;;;;;;;;;;;26.80;58.50;;;;;;852283;23;1362;-87
2022/08/24 00:25:40;;;;;;;;;;;26.70;58.50;;;;;;853052;23;703;-86
2022/08/24 00:26:03;;;;;;;;;;;26.80;58.60;;;;;;852805;23;1303;-88
2022/08/24 00:26:24;;;;;;;;;;;26.80;58.50;;;;;;852873;23;755;-88
2022/08/24 00:26:45;;;;;;;;;;;26.80;58.50;;;;;;851975;23;770;-87
2022/08/24 00:27:06;;;;;;;;;;;26.80;58.50;;;;;;848637;23;758;-87
2022/08/24 00:27:27;;;;;;;;;;;26.80;58.40;;;;;;844508;23;1097;-87
2022/08/24 00:27:47;;;;;;;;;;;26.80;58.40;;;;;;845546;23;913;-87
2022/08/24 00:28:08;;;;;;;;;;;26.80;58.40;;;;;;849643;23;770;-87
2022/08/24 00:28:29;;;;;;;;;;;26.80;58.50;;;;;;852937;23;687;-87
2022/08/24 00:28:49;;;;;;;;;;;26.80;58.60;;;;;;852939;23;774;-88
2022/08/24 00:29:11;;;;;;;;;;;26.80;58.50;;;;;;852899;23;865;-86
2022/08/24 00:29:32;;;;;;;;;;;26.80;58.50;;;;;;852719;23;1332;-87
2022/08/24 00:29:54;;;;;;;;;;;26.80;58.40;;;;;;852856;23;831;-85
2022/08/24 00:30:17;;;;;;;;;;;26.80;58.40;;;;;;848689;23;1371;-88
2022/08/24 00:30:37;;;;;;;;;;;26.80;58.50;;;;;;848805;23;742;-87
2022/08/24 00:30:59;;;;;;;;;;;26.80;58.60;;;;;;848831;23;712;-87
2022/08/24 00:31:19;;;;;;;;;;;26.80;58.70;;;;;;850099;23;798;-87
2022/08/24 00:31:40;;;;;;;;;;;26.80;58.60;;;;;;848837;23;1263;-86
2022/08/24 00:32:00;;;;;;;;;;;26.80;58.60;;;;;;849745;23;802;-86
2022/08/24 00:32:21;;;;;;;;;;;26.10;58.00;;;;;;853281;23;841;-85
2022/08/24 00:32:42;;;;;;;;;;;26.70;58.40;;;;;;850974;23;1451;-89
2022/08/24 00:33:03;;;;;;;;;;;26.80;58.50;;;;;;851130;23;1456;-90
2022/08/24 00:33:25;;;;;;;;;;;26.70;58.50;;;;;;851191;23;857;-90
2022/08/24 00:33:46;;;;;;;;;;;26.70;58.60;;;;;;851218;23;814;-89
2022/08/24 00:34:07;;;;;;;;;;;26.80;58.60;;;;;;851163;23;1198;-90
2022/08/24 00:34:28;;;;;;;;;;;26.70;58.50;;;;;;852252;23;762;-91
2022/08/24 00:34:49;;;;;;;;;;;26.70;58.60;;;;;;854999;23;786;-89
2022/08/24 00:35:10;;;;;;;;;;;26.80;58.80;;;;;;855330;23;1023;-89
2022/08/24 00:35:31;;;;;;;;;;;26.70;58.70;;;;;;855600;23;759;-90
2022/08/24 00:35:51;;;;;;;;;;;26.70;58.60;;;;;;855299;23;727;-88
2022/08/24 00:36:12;;;;;;;;;;;26.70;58.60;;;;;;855012;23;1196;-87
2022/08/24 00:36:34;;;;;;;;;;;26.70;58.70;;;;;;854888;23;1403;-90
2022/08/24 00:36:54;;;;;;;;;;;26.70;58.50;;;;;;855323;23;1287;-90
2022/08/24 00:37:15;;;;;;;;;;;26.70;58.60;;;;;;855296;23;869;-91
2022/08/24 00:37:36;;;;;;;;;;;26.70;58.60;;;;;;855322;23;1059;-91
2022/08/24 00:37:56;;;;;;;;;;;26.70;58.60;;;;;;855271;23;984;-90
2022/08/24 00:38:17;;;;;;;;;;;26.70;58.80;;;;;;853409;23;1034;-91
2022/08/24 00:38:38;;;;;;;;;;;26.70;58.60;;;;;;853189;23;778;-90
2022/08/24 00:38:59;;;;;;;;;;;26.70;58.60;;;;;;853081;23;1380;-89
2022/08/24 00:39:20;;;;;;;;;;;26.70;58.70;;;;;;853264;23;810;-90
2022/08/24 00:39:40;;;;;;;;;;;26.60;58.80;;;;;;853205;23;849;-90
2022/08/24 00:40:03;;;;;;;;;;;26.70;59.00;;;;;;853200;23;880;-90
2022/08/24 00:40:26;;;;;;;;;;;26.70;58.80;;;;;;852863;23;1191;-90
2022/08/24 00:40:47;;;;;;;;;;;26.70;58.80;;;;;;852997;23;813;-91
2022/08/24 00:41:08;;;;;;;;;;;26.70;58.80;;;;;;852982;23;794;-91
2022/08/24 00:41:29;;;;;;;;;;;26.60;58.60;;;;;;852934;23;1923;-90
2022/08/24 00:41:50;;;;;;;;;;;26.70;58.90;;;;;;853152;23;825;-91
2022/08/24 00:42:10;;;;;;;;;;;26.70;59.00;;;;;;852951;23;1289;-91
2022/08/24 00:42:31;;;;;;;;;;;26.60;59.00;;;;;;853229;23;826;-91
2022/08/24 00:42:52;;;;;;;;;;;26.60;58.80;;;;;;853227;23;793;-89
2022/08/24 00:43:16;;;;;;;;;;;26.70;58.80;;;;;;853231;23;798;-90
2022/08/24 00:43:36;;;;;;;;;;;26.70;58.80;;;;;;853006;23;1066;-90
2022/08/24 00:43:58;;;;;;;;;;;26.60;58.70;;;;;;852904;23;901;-91
2022/08/24 00:44:19;;;;;;;;;;;26.70;58.80;;;;;;852992;23;833;-90
2022/08/24 00:44:40;;;;;;;;;;;26.60;58.80;;;;;;852921;23;766;-89
2022/08/24 00:45:00;;;;;;;;;;;26.60;58.80;;;;;;853174;23;781;-90
2022/08/24 00:45:22;;;;;;;;;;;26.70;58.80;;;;;;852869;23;770;-88
2022/08/24 00:45:45;;;;;;;;;;;26.60;58.80;;;;;;853157;23;817;-91
2022/08/24 00:46:05;;;;;;;;;;;26.70;58.90;;;;;;853236;23;794;-91
2022/08/24 00:46:39;;;;;;;;;;;26.60;58.90;;;;;;853155;23;789;-90
2022/08/24 00:47:06;;;;;;;;;;;26.60;58.90;;;;;;852798;23;763;-91
2022/08/24 00:47:30;;;;;;;;;;;26.70;58.90;;;;;;852797;23;861;-91
2022/08/24 00:47:53;;;;;;;;;;;26.60;58.90;;;;;;852926;23;723;-91
2022/08/24 00:48:16;;;;;;;;;;;26.70;58.90;;;;;;852975;23;786;-90
2022/08/24 00:48:39;;;;;;;;;;;26.60;59.00;;;;;;853008;23;1103;-91
2022/08/24 00:49:30;;;;;;;;;;;26.60;59.00;;;;;;853173;23;770;-89
2022/08/24 00:50:01;;;;;;;;;;;26.70;59.00;;;;;;836523;23;1296;-91
2022/08/24 00:50:24;;;;;;;;;;;26.60;58.90;;;;;;836708;23;847;-89
2022/08/24 00:50:54;;;;;;;;;;;26.70;59.10;;;;;;836645;23;838;-90
2022/08/24 00:51:38;;;;;;;;;;;26.70;58.90;;;;;;836567;23;846;-91
2022/08/24 00:52:16;;;;;;;;;;;26.60;58.90;;;;;;828779;23;1047;-90
2022/08/24 00:52:49;;;;;;;;;;;26.70;58.90;;;;;;828682;23;843;-90
2022/08/24 00:53:17;;;;;;;;;;;26.60;58.90;;;;;;832608;23;1208;-90
2022/08/24 00:53:44;;;;;;;;;;;26.60;59.00;;;;;;832599;23;811;-90
2022/08/24 00:54:07;;;;;;;;;;;26.60;59.00;;;;;;828706;23;1171;-91
2022/08/24 00:54:29;;;;;;;;;;;26.60;59.00;;;;;;824707;24;1206;-90
2022/08/24 00:54:54;;;;;;;;;;;26.60;59.00;;;;;;824926;24;811;-91
2022/08/24 00:55:20;;;;;;;;;;;26.70;59.20;;;;;;821114;24;755;-90
2022/08/24 00:55:44;;;;;;;;;;;26.60;59.00;;;;;;824745;24;779;-90
2022/08/24 00:56:07;;;;;;;;;;;26.70;59.00;;;;;;828537;23;806;-89
2022/08/24 00:56:31;;;;;;;;;;;26.60;58.90;;;;;;832624;23;779;-89
2022/08/24 00:56:54;;;;;;;;;;;26.60;59.10;;;;;;832452;23;1326;-90
2022/08/24 00:57:16;;;;;;;;;;;26.70;59.10;;;;;;828744;23;1208;-90
2022/08/24 00:57:37;;;;;;;;;;;;;;;;;;825845;23;974;-90
2022/08/24 00:58:00;;;;;;;;;;;26.60;59.20;;;;;;824883;23;1312;-89
2022/08/24 00:58:26;;;;;;;;;;;26.60;59.00;;;;;;825282;24;1335;-89
2022/08/24 00:58:48;;;;;;;;;;;26.70;59.10;;;;;;825305;24;962;-89
2022/08/24 00:59:10;;;;;;;;;;;26.60;58.90;;;;;;827570;23;792;-92
2022/08/24 00:59:37;;;;;;;;;;;26.60;58.90;;;;;;828791;23;1383;-89
2022/08/24 01:00:03;;;;;;;;;;;26.60;59.10;;;;;;824976;23;1427;-90
2022/08/24 01:00:25;;;;;;;;;;;;;;;;;;828875;23;1295;-89
2022/08/24 01:00:48;;;;;;;;;;;26.60;59.10;;;;;;828866;23;807;-90
2022/08/24 01:01:10;;;;;;;;;;;26.60;59.00;;;;;;824907;23;1150;-91
2022/08/24 01:01:32;;;;;;;;;;;26.60;59.10;;;;;;824819;23;1901;-89
2022/08/24 01:01:53;;;;;;;;;;;26.60;59.20;;;;;;828124;23;1383;-90
2022/08/24 01:02:17;;;;;;;;;;;26.70;59.20;;;;;;827254;23;815;-92
2022/08/24 01:02:39;;;;;;;;;;;;;;;;;;825326;24;784;-88
2022/08/24 01:03:03;;;;;;;;;;;26.60;59.00;;;;;;827785;23;836;-90
2022/08/24 01:03:25;;;;;;;;;;;26.60;59.00;;;;;;827261;23;873;-91
2022/08/24 01:03:46;;;;;;;;;;;26.60;59.00;;;;;;827665;24;1441;-89
2022/08/24 01:04:09;;;;;;;;;;;26.60;59.00;;;;;;827628;24;1230;-89
2022/08/24 01:04:34;;;;;;;;;;;26.60;59.10;;;;;;827820;24;946;-89
2022/08/24 01:04:56;;;;;;;;;;;26.60;59.10;;;;;;827534;23;1163;-90
2022/08/24 01:05:17;;;;;;;;;;;26.60;59.20;;;;;;829967;23;985;-89
2022/08/24 01:05:39;;;;;;;;;;;26.60;59.20;;;;;;827072;23;1093;-87
2022/08/24 01:05:59;;;;;;;;;;;26.60;59.20;;;;;;831215;23;1304;-87
2022/08/24 01:06:20;;;;;;;;;;;26.60;59.10;;;;;;831162;23;1064;-88
2022/08/24 01:06:41;;;;;;;;;;;26.60;59.10;;;;;;831230;23;1178;-88
2022/08/24 01:07:03;;;;;;;;;;;26.60;59.00;;;;;;831709;23;862;-90
2022/08/24 01:07:25;;;;;;;;;;;26.60;59.00;;;;;;831916;23;1060;-87
2022/08/24 01:07:49;;;;;;;;;;;;;;;;;;830961;23;1059;-87
2022/08/24 01:08:10;;;;;;;;;;;26.60;59.00;;;;;;827856;24;934;-90
2022/08/24 01:08:31;;;;;;;;;;;26.60;59.20;;;;;;829997;23;1064;-87
2022/08/24 01:08:51;;;;;;;;;;;26.60;59.30;;;;;;828274;23;1241;-87
2022/08/24 01:09:13;;;;;;;;;;;26.60;59.30;;;;;;832086;23;1249;-89
2022/08/24 01:09:33;;;;;;;;;;;26.60;59.20;;;;;;833082;23;1059;-89
2022/08/24 01:09:55;;;;;;;;;;;26.60;59.10;;;;;;832240;23;798;-88
2022/08/24 01:10:23;;;;;;;;;;;26.60;59.10;;;;;;827964;23;1362;-88
2022/08/24 01:10:49;;;;;;;;;;;26.60;59.10;;;;;;828243;23;1081;-88
2022/08/24 01:11:11;;;;;;;;;;;26.60;59.20;;;;;;824985;24;1052;-88
2022/08/24 01:11:32;;;;;;;;;;;26.60;59.10;;;;;;827086;24;1322;-88
2022/08/24 01:11:53;;;;;;;;;;;26.60;59.10;;;;;;827762;23;1120;-88
2022/08/24 01:12:16;;;;;;;;;;;;;;;;;;824331;24;1265;-87
2022/08/24 01:12:38;;;;;;;;;;;26.60;59.30;;;;;;822137;24;1142;-89
2022/08/24 01:13:00;;;;;;;;;;;26.60;59.30;;;;;;821344;24;784;-90
2022/08/24 01:13:22;;;;;;;;;;;26.60;59.40;;;;;;821376;24;962;-88
2022/08/24 01:13:43;;;;;;;;;;;26.50;59.10;;;;;;821123;24;768;-91
2022/08/24 01:14:04;;;;;;;;;;;26.50;59.10;;;;;;822839;24;771;-90
2022/08/24 01:14:25;;;;;;;;;;;26.60;59.30;;;;;;826404;23;962;-88
2022/08/24 01:14:46;;;;;;;;;;;26.60;59.40;;;;;;828885;23;875;-90
2022/08/24 01:15:08;;;;;;;;;;;26.50;59.30;;;;;;828906;23;989;-89
2022/08/24 01:15:29;;;;;;;;;;;26.60;59.40;;;;;;828686;23;942;-88
2022/08/24 01:15:52;;;;;;;;;;;26.60;59.40;;;;;;828685;23;972;-89
2022/08/24 01:16:14;;;;;;;;;;;26.60;59.30;;;;;;828823;23;803;-88
2022/08/24 01:19:17;;;;;;;;;;;26.60;59.30;;;;;;828588;23;1248;-88
2022/08/24 01:19:42;;;;;;;;;;;26.60;59.30;;;;;;828844;23;827;-88
2022/08/24 01:20:04;;;;;;;;;;;26.60;59.40;;;;;;828670;23;886;-87
2022/08/24 01:20:25;;;;;;;;;;;26.60;59.40;;;;;;828777;23;830;-88
2022/08/24 01:20:51;;;;;;;;;;;26.60;59.40;;;;;;828644;23;1069;-88
2022/08/24 01:21:20;;;;;;;;;;;26.60;59.30;;;;;;824661;23;1308;-87
2022/08/24 01:21:57;;;;;;;;;;;26.60;59.50;;;;;;824777;24;1882;-88
2022/08/24 01:22:21;;;;;;;;;;;26.60;59.50;;;;;;824873;24;940;-87
2022/08/24 01:22:59;;;;;;;;;;;26.60;59.40;;;;;;824810;24;807;-88
2022/08/24 01:23:39;;;;;;;;;;;26.60;59.40;;;;;;828527;23;1282;-87
2022/08/24 01:24:02;;;;;;;;;;;26.60;59.40;;;;;;824858;23;1296;-88
2022/08/24 01:24:23;;;;;;;;;;;26.60;59.30;;;;;;824939;24;917;-88
2022/08/24 01:24:43;;;;;;;;;;;26.60;59.30;;;;;;824733;23;838;-89
2022/08/24 01:25:05;;;;;;;;;;;26.60;59.30;;;;;;824865;24;826;-86
2022/08/24 01:25:26;;;;;;;;;;;26.60;59.40;;;;;;824867;24;1408;-88
2022/08/24 01:25:47;;;;;;;;;;;26.60;59.30;;;;;;826042;23;775;-88
2022/08/24 01:26:10;;;;;;;;;;;26.60;59.30;;;;;;828630;23;791;-89
2022/08/24 01:26:38;;;;;;;;;;;26.60;59.30;;;;;;824785;23;1067;-89
2022/08/24 01:26:59;;;;;;;;;;;26.60;59.30;;;;;;824870;24;794;-90
2022/08/24 01:27:20;;;;;;;;;;;26.60;59.40;;;;;;831729;23;1260;-89
2022/08/24 01:27:41;;;;;;;;;;;;;;;;;;836403;23;1191;-87
2022/08/24 01:28:06;;;;;;;;;;;26.60;59.40;;;;;;833034;23;1467;-88
2022/08/24 01:28:29;;;;;;;;;;;26.60;59.30;;;;;;835477;23;1482;-88
2022/08/24 01:28:50;;;;;;;;;;;26.70;59.20;;;;;;836412;23;1080;-88
2022/08/24 01:29:14;;;;;;;;;;;26.70;59.40;;;;;;838414;23;1412;-87
2022/08/24 01:29:36;;;;;;;;;;;26.70;59.40;;;;;;837852;23;1351;-90
2022/08/24 01:30:00;;;;;;;;;;;26.70;59.40;;;;;;842192;23;1187;-89
2022/08/24 01:30:21;;;;;;;;;;;26.60;59.30;;;;;;845991;23;1585;-89
2022/08/24 01:30:42;;;;;;;;;;;26.60;59.30;;;;;;842101;23;1187;-88
2022/08/24 01:31:03;;;;;;;;;;;26.70;59.30;;;;;;842779;23;755;-88
2022/08/24 01:31:24;;;;;;;;;;;26.70;59.20;;;;;;846222;23;873;-89
2022/08/24 01:31:45;;;;;;;;;;;26.60;59.10;;;;;;852718;23;1181;-89
2022/08/24 01:32:06;;;;;;;;;;;26.70;59.30;;;;;;852894;23;1300;-89
2022/08/24 01:32:29;;;;;;;;;;;26.70;59.30;;;;;;851943;23;1284;-87
2022/08/24 01:32:58;;;;;;;;;;;26.70;59.20;;;;;;848617;23;1288;-88
2022/08/24 01:33:23;;;;;;;;;;;26.70;59.30;;;;;;848745;23;821;-88
2022/08/24 01:33:47;;;;;;;;;;;26.70;59.30;;;;;;848722;23;801;-88
2022/08/24 01:34:08;;;;;;;;;;;26.70;59.30;;;;;;848810;23;1281;-88
2022/08/24 01:34:28;;;;;;;;;;;26.60;59.10;;;;;;852876;23;742;-87
2022/08/24 01:34:49;;;;;;;;;;;26.70;59.30;;;;;;852910;23;805;-88
2022/08/24 01:35:09;;;;;;;;;;;26.70;59.30;;;;;;848966;23;1137;-88
2022/08/24 01:35:31;;;;;;;;;;;26.70;59.20;;;;;;848793;23;1019;-89
2022/08/24 01:36:14;;;;;;;;;;;26.60;59.10;;;;;;849316;23;742;-87
2022/08/24 01:36:37;;;;;;;;;;;26.70;59.20;;;;;;848658;23;960;-88
2022/08/24 01:36:59;;;;;;;;;;;26.70;59.20;;;;;;848719;23;455;-89
2022/08/24 01:37:19;;;;;;;;;;;26.70;59.10;;;;;;848481;23;1078;-88
2022/08/24 01:37:40;;;;;;;;;;;26.70;59.00;;;;;;848641;23;1011;-89
2022/08/24 01:38:03;;;;;;;;;;;26.70;59.10;;;;;;848614;23;762;-90
2022/08/24 01:38:24;;;;;;;;;;;26.70;59.10;;;;;;848695;23;844;-88
2022/08/24 01:38:46;;;;;;;;;;;26.70;59.10;;;;;;848774;23;754;-89
2022/08/24 01:39:26;;;;;;;;;;;26.70;59.10;;;;;;848984;23;956;-89
2022/08/24 01:39:48;;;;;;;;;;;26.70;59.10;;;;;;843765;23;1417;-87
2022/08/24 01:40:09;;;;;;;;;;;26.70;59.10;;;;;;840723;23;1269;-90
2022/08/24 01:40:33;;;;;;;;;;;26.70;59.00;;;;;;836668;23;1211;-88
2022/08/24 01:40:56;;;;;;;;;;;26.70;59.00;;;;;;836858;23;790;-90
2022/08/24 01:41:17;;;;;;;;;;;26.70;58.90;;;;;;836851;23;814;-88
2022/08/24 01:41:37;;;;;;;;;;;26.70;58.90;;;;;;838466;23;1922;-89
2022/08/24 01:41:58;;;;;;;;;;;26.70;58.90;;;;;;842195;23;1090;-90
2022/08/24 01:42:19;;;;;;;;;;;26.70;59.00;;;;;;842331;23;1300;-88
2022/08/24 01:42:45;;;;;;;;;;;26.70;59.00;;;;;;844852;23;1250;-90
2022/08/24 01:43:06;;;;;;;;;;;26.70;59.00;;;;;;844831;23;794;-88
2022/08/24 01:43:27;;;;;;;;;;;26.70;59.10;;;;;;840603;23;1161;-87
2022/08/24 01:43:47;;;;;;;;;;;26.80;59.20;;;;;;840720;23;1306;-90
2022/08/24 01:44:08;;;;;;;;;;;26.70;59.10;;;;;;838312;23;1166;-89
2022/08/24 01:44:32;;;;;;;;;;;26.70;59.10;;;;;;840774;23;838;-88
2022/08/24 01:44:53;;;;;;;;;;;26.70;59.10;;;;;;840752;23;723;-88
2022/08/24 01:45:14;;;;;;;;;;;26.70;59.10;;;;;;838044;23;1449;-88
2022/08/24 01:45:35;;;;;;;;;;;26.70;59.10;;;;;;840855;23;1216;-88
2022/08/24 01:45:55;;;;;;;;;;;26.70;59.10;;;;;;842025;23;755;-87
2022/08/24 01:46:16;;;;;;;;;;;26.70;59.00;;;;;;844608;23;1057;-89
2022/08/24 01:46:36;;;;;;;;;;;26.70;59.10;;;;;;844953;23;766;-89
2022/08/24 01:46:57;;;;;;;;;;;26.70;59.00;;;;;;844787;23;1284;-90
2022/08/24 01:47:17;;;;;;;;;;;26.80;59.10;;;;;;844449;23;771;-89
2022/08/24 01:47:38;;;;;;;;;;;26.70;59.10;;;;;;840789;23;794;-90
2022/08/24 01:48:01;;;;;;;;;;;26.80;59.10;;;;;;840560;23;1184;-85
2022/08/24 01:48:21;;;;;;;;;;;26.70;59.00;;;;;;840703;23;1176;-88
2022/08/24 01:48:42;;;;;;;;;;;26.80;59.00;;;;;;841430;23;1186;-90
2022/08/24 01:49:04;;;;;;;;;;;26.70;59.00;;;;;;844726;23;1194;-91
2022/08/24 01:49:26;;;;;;;;;;;26.70;59.00;;;;;;844831;23;1266;-90
2022/08/24 01:49:47;;;;;;;;;;;26.70;59.00;;;;;;844883;23;750;-87
2022/08/24 01:50:08;;;;;;;;;;;26.70;59.00;;;;;;844964;23;861;-90
2022/08/24 01:50:30;;;;;;;;;;;26.80;59.00;;;;;;844588;23;1230;-87
2022/08/24 01:50:51;;;;;;;;;;;26.70;59.00;;;;;;846325;23;794;-88
2022/08/24 01:51:12;;;;;;;;;;;26.70;59.00;;;;;;848940;23;813;-88
2022/08/24 01:51:32;;;;;;;;;;;26.80;59.00;;;;;;845045;23;1217;-87
2022/08/24 01:51:53;;;;;;;;;;;26.70;59.00;;;;;;840870;23;1254;-86
2022/08/24 01:52:16;;;;;;;;;;;26.70;58.90;;;;;;840823;23;992;-86
2022/08/24 01:52:38;;;;;;;;;;;26.80;59.00;;;;;;840840;23;1072;-88
2022/08/24 01:53:01;;;;;;;;;;;26.80;58.90;;;;;;836843;23;1203;-87
2022/08/24 01:53:22;;;;;;;;;;;26.70;58.80;;;;;;838712;23;751;-87
2022/08/24 01:53:43;;;;;;;;;;;26.80;58.90;;;;;;840755;23;759;-88
2022/08/24 01:54:04;;;;;;;;;;;26.80;58.90;;;;;;840774;23;1309;-87
2022/08/24 01:54:26;;;;;;;;;;;26.70;58.90;;;;;;838041;23;1285;-87
2022/08/24 01:54:47;;;;;;;;;;;26.80;59.00;;;;;;842049;23;799;-88
2022/08/24 01:55:09;;;;;;;;;;;26.80;59.00;;;;;;844748;23;1205;-89
2022/08/24 01:55:30;;;;;;;;;;;26.70;58.90;;;;;;844866;23;786;-90
2022/08/24 01:55:50;;;;;;;;;;;26.60;58.90;;;;;;839516;23;1252;-89
2022/08/24 01:56:11;;;;;;;;;;;26.80;59.00;;;;;;837766;23;1218;-88
2022/08/24 01:56:32;;;;;;;;;;;26.80;59.00;;;;;;844777;23;1069;-89
2022/08/24 01:56:52;;;;;;;;;;;26.80;58.90;;;;;;844747;23;1261;-88
2022/08/24 01:57:13;;;;;;;;;;;26.80;58.90;;;;;;844723;23;1097;-90
2022/08/24 01:57:33;;;;;;;;;;;26.70;58.70;;;;;;845258;23;916;-89
2022/08/24 01:57:54;;;;;;;;;;;26.80;58.80;;;;;;848732;23;914;-88
2022/08/24 01:58:15;;;;;;;;;;;26.80;58.80;;;;;;844874;23;1288;-88
2022/08/24 01:58:41;;;;;;;;;;;26.80;58.80;;;;;;840704;23;1245;-90
2022/08/24 01:59:02;;;;;;;;;;;26.80;58.80;;;;;;840827;23;794;-87
2022/08/24 01:59:24;;;;;;;;;;;26.80;58.90;;;;;;836532;23;1260;-89
2022/08/24 01:59:44;;;;;;;;;;;26.80;58.90;;;;;;836832;23;862;-88
2022/08/24 02:00:07;;;;;;;;;;;26.80;58.90;;;;;;838892;23;961;-90
2022/08/24 02:00:28;;;;;;;;;;;26.80;58.80;;;;;;838819;23;1282;-88
2022/08/24 02:00:48;;;;;;;;;;;26.70;58.70;;;;;;840617;23;1342;-88
2022/08/24 02:01:09;;;;;;;;;;;26.80;58.80;;;;;;837652;23;1242;-88
2022/08/24 02:01:31;;;;;;;;;;;26.70;58.70;;;;;;840741;23;1889;-88
2022/08/24 02:01:54;;;;;;;;;;;26.70;58.70;;;;;;836674;23;1121;-88
2022/08/24 02:02:16;;;;;;;;;;;26.70;58.70;;;;;;836685;23;1474;-88
2022/08/24 02:02:37;;;;;;;;;;;26.70;58.70;;;;;;838545;23;1095;-88
2022/08/24 02:02:57;;;;;;;;;;;26.80;58.80;;;;;;842159;23;1222;-87
2022/08/24 02:03:19;;;;;;;;;;;26.70;58.80;;;;;;844703;23;869;-87
2022/08/24 02:03:39;;;;;;;;;;;26.70;58.70;;;;;;846227;23;854;-89
2022/08/24 02:04:01;;;;;;;;;;;26.80;58.90;;;;;;843979;23;1064;-87
2022/08/24 02:04:22;;;;;;;;;;;26.70;58.90;;;;;;836790;23;1304;-87
2022/08/24 02:04:43;;;;;;;;;;;26.70;58.80;;;;;;837640;23;799;-88
2022/08/24 02:05:03;;;;;;;;;;;26.70;58.80;;;;;;840736;23;885;-88
2022/08/24 02:05:24;;;;;;;;;;;26.70;58.80;;;;;;840859;23;817;-87
2022/08/24 02:05:45;;;;;;;;;;;26.70;58.80;;;;;;841490;23;774;-88
2022/08/24 02:06:05;;;;;;;;;;;26.70;58.80;;;;;;845358;23;794;-88
2022/08/24 02:06:26;;;;;;;;;;;26.60;58.80;;;;;;844682;23;1279;-88
2022/08/24 02:06:46;;;;;;;;;;;26.70;58.80;;;;;;840636;23;842;-88
2022/08/24 02:07:08;;;;;;;;;;;26.70;58.80;;;;;;836803;23;1125;-88
2022/08/24 02:07:31;;;;;;;;;;;26.70;58.80;;;;;;836742;23;830;-88
2022/08/24 02:07:52;;;;;;;;;;;26.70;58.80;;;;;;836963;23;786;-87
2022/08/24 02:08:13;;;;;;;;;;;26.70;58.80;;;;;;837674;23;1290;-88
2022/08/24 02:08:34;;;;;;;;;;;26.70;58.80;;;;;;841910;23;743;-88
2022/08/24 02:08:55;;;;;;;;;;;26.70;58.80;;;;;;844658;23;1385;-88
2022/08/24 02:09:16;;;;;;;;;;;26.60;58.80;;;;;;840626;23;1172;-88
2022/08/24 02:09:37;;;;;;;;;;;26.70;58.90;;;;;;836650;23;1195;-87
2022/08/24 02:09:58;;;;;;;;;;;26.70;58.80;;;;;;836706;23;1481;-88
2022/08/24 02:10:19;;;;;;;;;;;26.70;58.90;;;;;;832772;23;1400;-88
2022/08/24 02:10:40;;;;;;;;;;;26.70;58.90;;;;;;832832;23;1135;-87
2022/08/24 02:11:01;;;;;;;;;;;26.70;58.90;;;;;;833250;23;1649;-85
2022/08/24 02:11:22;;;;;;;;;;;26.70;58.80;;;;;;833599;23;1234;-89
2022/08/24 02:11:43;;;;;;;;;;;26.60;58.80;;;;;;836907;23;830;-89
2022/08/24 02:12:04;;;;;;;;;;;26.70;58.90;;;;;;837601;23;751;-88
2022/08/24 02:12:24;;;;;;;;;;;26.70;58.80;;;;;;840912;23;851;-87
2022/08/24 02:12:56;;;;;;;;;;;26.70;59.00;;;;;;837469;23;1091;-88
2022/08/24 02:13:16;;;;;;;;;;;26.70;58.80;;;;;;843632;23;762;-87
2022/08/24 02:13:38;;;;;;;;;;;26.70;58.80;;;;;;844770;23;774;-87
2022/08/24 02:13:59;;;;;;;;;;;26.70;59.00;;;;;;844797;23;933;-87
2022/08/24 02:14:20;;;;;;;;;;;26.70;58.90;;;;;;840799;23;1172;-87
2022/08/24 02:14:41;;;;;;;;;;;26.70;58.90;;;;;;849597;23;954;-87
2022/08/24 02:15:01;;;;;;;;;;;26.70;58.90;;;;;;848853;23;834;-88
2022/08/24 02:15:32;;;;;;;;;;;26.70;58.90;;;;;;848872;23;1436;-88
2022/08/24 02:15:53;;;;;;;;;;;26.70;58.90;;;;;;848858;23;1376;-87
2022/08/24 02:16:13;;;;;;;;;;;26.60;58.80;;;;;;848877;23;1155;-87
2022/08/24 02:16:34;;;;;;;;;;;26.60;58.90;;;;;;849033;23;759;-89
2022/08/24 02:16:56;;;;;;;;;;;26.70;58.90;;;;;;851434;23;874;-88
2022/08/24 02:17:17;;;;;;;;;;;26.60;58.80;;;;;;853163;23;825;-88